LOT5ZT EPKK-LOWI
Flight info
| Callsign | LOT5ZT |
|---|---|
| Flight time | N/A |
| Altitude | 38000 |
| Route | BABKO DCT VADEX DCT TOVKA DCT BARUG DCT VATET DCT RASTA DCT NANIT NANIT2A |
| Aircraft | B738/M-SDE2E3FGHIRWXY/LB1 |
Departure
| Time | 2026-05-06 17:53 |
|---|---|
| Airport | Kraków John Paul II International Airport (EPKK) |
Arrival
| Time | N/A |
|---|---|
| Airport | Innsbruck Airport (LOWI) |
| Time | Latitude | Longitude | Altitude | Speed | Heading |
|---|---|---|---|---|---|
| 2026-05-06 17:32 | 50.07336 | 19.80207 | 799 ft | 0 kts | 168° |
| 2026-05-06 17:42 | 50.07338 | 19.80207 | 799 ft | 2 kts | 168° |
| 2026-05-06 17:43 | 50.07354 | 19.80200 | 799 ft | 2 kts | 165° |
| 2026-05-06 17:43 | 50.07370 | 19.80193 | 799 ft | 2 kts | 160° |
| 2026-05-06 17:43 | 50.07385 | 19.80183 | 799 ft | 2 kts | 153° |
| 2026-05-06 17:43 | 50.07399 | 19.80170 | 799 ft | 2 kts | 140° |
| 2026-05-06 17:44 | 50.07410 | 19.80151 | 799 ft | 2 kts | 112° |
| 2026-05-06 17:44 | 50.07413 | 19.80127 | 799 ft | 2 kts | 83° |
| 2026-05-06 17:44 | 50.07412 | 19.80117 | 799 ft | 0 kts | 79° |
| 2026-05-06 17:48 | 50.07413 | 19.80127 | 799 ft | 2 kts | 79° |
| 2026-05-06 17:48 | 50.07416 | 19.80151 | 799 ft | 3 kts | 79° |
| 2026-05-06 17:48 | 50.07420 | 19.80186 | 799 ft | 4 kts | 78° |
| 2026-05-06 17:49 | 50.07428 | 19.80232 | 799 ft | 5 kts | 72° |
| 2026-05-06 17:49 | 50.07437 | 19.80288 | 799 ft | 6 kts | 76° |
| 2026-05-06 17:49 | 50.07449 | 19.80353 | 799 ft | 6 kts | 56° |
| 2026-05-06 17:49 | 50.07492 | 19.80388 | 799 ft | 8 kts | 16° |
| 2026-05-06 17:50 | 50.07545 | 19.80412 | 799 ft | 8 kts | 18° |
| 2026-05-06 17:50 | 50.07604 | 19.80418 | 799 ft | 9 kts | 348° |
| 2026-05-06 17:50 | 50.07666 | 19.80394 | 799 ft | 10 kts | 346° |
| 2026-05-06 17:50 | 50.07732 | 19.80373 | 799 ft | 9 kts | 348° |
| 2026-05-06 17:51 | 50.07795 | 19.80353 | 799 ft | 9 kts | 348° |
| 2026-05-06 17:51 | 50.07855 | 19.80333 | 799 ft | 9 kts | 348° |
| 2026-05-06 17:51 | 50.07915 | 19.80313 | 799 ft | 9 kts | 348° |
| 2026-05-06 17:51 | 50.07979 | 19.80291 | 798 ft | 10 kts | 348° |
| 2026-05-06 17:52 | 50.08013 | 19.80242 | 799 ft | 5 kts | 283° |
| 2026-05-06 17:52 | 50.08009 | 19.80190 | 799 ft | 8 kts | 258° |
| 2026-05-06 17:52 | 50.07938 | 19.79672 | 800 ft | 89 kts | 257° |
| 2026-05-06 17:52 | 50.07748 | 19.78348 | 801 ft | 159 kts | 255° |
| 2026-05-06 17:53 | 50.07473 | 19.76433 | 1143 ft | 194 kts | 259° |
| 2026-05-06 17:53 | 50.07298 | 19.75011 | 1585 ft | 209 kts | 261° |
| 2026-05-06 17:53 | 50.06898 | 19.72063 | 2816 ft | 206 kts | 255° |
| 2026-05-06 17:53 | 50.06569 | 19.69803 | 3293 ft | 226 kts | 255° |
| 2026-05-06 17:54 | 50.06105 | 19.67398 | 3787 ft | 233 kts | 237° |
| 2026-05-06 17:54 | 50.05015 | 19.65645 | 4679 ft | 225 kts | 208° |
| 2026-05-06 17:54 | 50.03507 | 19.64808 | 5180 ft | 241 kts | 187° |
| 2026-05-06 17:54 | 50.02380 | 19.64862 | 5580 ft | 249 kts | 175° |
| 2026-05-06 17:55 | 50.00660 | 19.65376 | 6320 ft | 253 kts | 171° |
| 2026-05-06 17:55 | 49.98931 | 19.65995 | 7044 ft | 257 kts | 171° |
| 2026-05-06 17:55 | 49.97175 | 19.66629 | 7738 ft | 262 kts | 171° |
| 2026-05-06 17:55 | 49.94803 | 19.67460 | 8721 ft | 265 kts | 171° |
| 2026-05-06 17:56 | 49.92993 | 19.68079 | 9463 ft | 268 kts | 171° |
| 2026-05-06 17:56 | 49.91752 | 19.68499 | 9920 ft | 271 kts | 171° |
| 2026-05-06 17:56 | 49.89881 | 19.69128 | 10220 ft | 290 kts | 171° |
| 2026-05-06 17:56 | 49.87821 | 19.69308 | 10368 ft | 307 kts | 192° |
| 2026-05-06 17:57 | 49.85758 | 19.68194 | 10600 ft | 323 kts | 207° |
| 2026-05-06 17:57 | 49.83760 | 19.66493 | 11122 ft | 331 kts | 210° |
| 2026-05-06 17:57 | 49.81759 | 19.64716 | 11806 ft | 333 kts | 210° |
| 2026-05-06 17:57 | 49.79736 | 19.62916 | 12488 ft | 337 kts | 210° |
| 2026-05-06 17:58 | 49.77686 | 19.61111 | 13153 ft | 341 kts | 210° |
| 2026-05-06 17:58 | 49.75611 | 19.59299 | 13815 ft | 344 kts | 210° |
| 2026-05-06 17:58 | 49.73522 | 19.57484 | 14464 ft | 346 kts | 210° |
| 2026-05-06 17:58 | 49.71448 | 19.55696 | 15090 ft | 347 kts | 210° |
| 2026-05-06 17:59 | 49.69332 | 19.53878 | 15719 ft | 349 kts | 210° |
| 2026-05-06 17:59 | 49.67199 | 19.52045 | 16330 ft | 352 kts | 210° |
| 2026-05-06 17:59 | 49.65049 | 19.50199 | 16902 ft | 355 kts | 210° |
| 2026-05-06 17:59 | 49.62878 | 19.48340 | 17465 ft | 358 kts | 210° |
| 2026-05-06 18:00 | 49.60794 | 19.46221 | 17994 ft | 361 kts | 220° |
| 2026-05-06 18:00 | 49.59011 | 19.43477 | 18530 ft | 363 kts | 230° |
| 2026-05-06 18:00 | 49.57462 | 19.40391 | 19029 ft | 366 kts | 232° |
| 2026-05-06 18:00 | 49.55910 | 19.37264 | 19528 ft | 369 kts | 232° |
| 2026-05-06 18:01 | 49.54366 | 19.34161 | 19988 ft | 371 kts | 232° |
| 2026-05-06 18:01 | 49.52783 | 19.30993 | 20427 ft | 375 kts | 232° |
| 2026-05-06 18:01 | 49.51185 | 19.27809 | 20929 ft | 377 kts | 232° |
| 2026-05-06 18:01 | 49.49574 | 19.24607 | 21406 ft | 380 kts | 232° |
| 2026-05-06 18:02 | 49.47947 | 19.21385 | 21867 ft | 383 kts | 232° |
| 2026-05-06 18:02 | 49.46307 | 19.18146 | 22339 ft | 385 kts | 232° |
| 2026-05-06 18:02 | 49.44667 | 19.14912 | 22757 ft | 389 kts | 232° |
| 2026-05-06 18:02 | 49.42989 | 19.11606 | 23209 ft | 391 kts | 232° |
| 2026-05-06 18:03 | 49.41311 | 19.08307 | 23612 ft | 393 kts | 232° |
| 2026-05-06 18:03 | 49.39650 | 19.05038 | 24092 ft | 392 kts | 232° |
| 2026-05-06 18:03 | 49.37974 | 19.01752 | 24582 ft | 391 kts | 232° |
| 2026-05-06 18:03 | 49.36349 | 18.98569 | 24929 ft | 393 kts | 232° |
| 2026-05-06 18:04 | 49.34655 | 18.95255 | 25260 ft | 396 kts | 232° |
| 2026-05-06 18:04 | 49.32946 | 18.91917 | 25585 ft | 398 kts | 232° |
| 2026-05-06 18:04 | 49.31234 | 18.88573 | 25899 ft | 400 kts | 232° |
| 2026-05-06 18:04 | 49.29508 | 18.85208 | 26240 ft | 402 kts | 232° |
| 2026-05-06 18:05 | 49.27779 | 18.81843 | 26602 ft | 403 kts | 232° |
| 2026-05-06 18:05 | 49.26040 | 18.78460 | 26917 ft | 405 kts | 232° |
| 2026-05-06 18:05 | 49.24290 | 18.75061 | 27219 ft | 407 kts | 232° |
| 2026-05-06 18:05 | 49.22531 | 18.71650 | 27508 ft | 409 kts | 232° |
| 2026-05-06 18:06 | 49.20789 | 18.68275 | 27855 ft | 410 kts | 232° |
| 2026-05-06 18:06 | 49.19015 | 18.64844 | 28156 ft | 412 kts | 232° |
| 2026-05-06 18:06 | 49.17235 | 18.61404 | 28444 ft | 414 kts | 232° |
| 2026-05-06 18:06 | 49.15444 | 18.57948 | 28726 ft | 416 kts | 232° |
| 2026-05-06 18:07 | 49.13647 | 18.54484 | 28984 ft | 418 kts | 232° |
| 2026-05-06 18:07 | 49.11836 | 18.50997 | 29253 ft | 420 kts | 232° |
| 2026-05-06 18:07 | 49.10017 | 18.47502 | 29529 ft | 421 kts | 232° |
| 2026-05-06 18:07 | 49.08196 | 18.44006 | 29891 ft | 420 kts | 232° |
| 2026-05-06 18:08 | 49.06381 | 18.40528 | 30260 ft | 418 kts | 232° |
| 2026-05-06 18:08 | 49.04576 | 18.37072 | 30620 ft | 416 kts | 232° |
| 2026-05-06 18:08 | 49.02805 | 18.33686 | 31003 ft | 413 kts | 232° |
| 2026-05-06 18:08 | 49.01032 | 18.30300 | 31539 ft | 406 kts | 232° |
| 2026-05-06 18:09 | 48.99279 | 18.26956 | 31824 ft | 406 kts | 232° |
| 2026-05-06 18:09 | 48.97511 | 18.23587 | 32005 ft | 408 kts | 232° |
| 2026-05-06 18:09 | 48.95738 | 18.20213 | 32265 ft | 407 kts | 232° |
| 2026-05-06 18:09 | 48.93974 | 18.16862 | 32634 ft | 404 kts | 232° |
| 2026-05-06 18:10 | 48.92220 | 18.13535 | 32974 ft | 402 kts | 232° |
| 2026-05-06 18:10 | 48.90477 | 18.10233 | 33272 ft | 401 kts | 232° |
| 2026-05-06 18:10 | 48.88754 | 18.06970 | 33498 ft | 401 kts | 232° |
| 2026-05-06 18:10 | 48.87007 | 18.03665 | 33752 ft | 401 kts | 232° |
| 2026-05-06 18:11 | 48.85266 | 18.00377 | 34007 ft | 399 kts | 232° |
| 2026-05-06 18:11 | 48.83579 | 17.97195 | 34209 ft | 399 kts | 232° |
| 2026-05-06 18:11 | 48.81837 | 17.93913 | 34364 ft | 400 kts | 232° |
| 2026-05-06 18:11 | 48.80092 | 17.90630 | 34543 ft | 400 kts | 232° |
| 2026-05-06 18:12 | 48.78349 | 17.87355 | 34746 ft | 399 kts | 232° |
| 2026-05-06 18:12 | 48.76606 | 17.84082 | 34932 ft | 399 kts | 232° |
| 2026-05-06 18:12 | 48.74860 | 17.80810 | 35085 ft | 399 kts | 232° |
| 2026-05-06 18:12 | 48.73137 | 17.77583 | 35261 ft | 399 kts | 232° |
| 2026-05-06 18:13 | 48.71390 | 17.74316 | 35414 ft | 399 kts | 232° |
| 2026-05-06 18:13 | 48.69643 | 17.71053 | 35574 ft | 400 kts | 232° |
| 2026-05-06 18:13 | 48.67894 | 17.67790 | 35768 ft | 399 kts | 232° |
| 2026-05-06 18:13 | 48.66145 | 17.64531 | 35942 ft | 398 kts | 232° |
| 2026-05-06 18:14 | 48.64399 | 17.61282 | 36072 ft | 399 kts | 231° |
| 2026-05-06 18:14 | 48.62648 | 17.58027 | 36232 ft | 399 kts | 231° |
| 2026-05-06 18:14 | 48.60899 | 17.54780 | 36395 ft | 398 kts | 231° |
| 2026-05-06 18:14 | 48.59146 | 17.51529 | 36485 ft | 400 kts | 231° |
| 2026-05-06 18:15 | 48.57386 | 17.48269 | 36591 ft | 401 kts | 231° |
| 2026-05-06 18:15 | 48.55625 | 17.45013 | 36756 ft | 400 kts | 231° |
| 2026-05-06 18:15 | 48.53887 | 17.41802 | 36861 ft | 401 kts | 231° |
| 2026-05-06 18:15 | 48.52121 | 17.38542 | 36879 ft | 403 kts | 231° |
| 2026-05-06 18:16 | 48.48552 | 17.31969 | 37024 ft | 406 kts | 231° |
| 2026-05-06 18:16 | 48.44960 | 17.25368 | 37166 ft | 409 kts | 231° |
| 2026-05-06 18:17 | 48.41341 | 17.18734 | 37320 ft | 411 kts | 231° |
| 2026-05-06 18:17 | 48.37701 | 17.12078 | 37459 ft | 413 kts | 231° |
| 2026-05-06 18:18 | 48.34067 | 17.05448 | 37588 ft | 414 kts | 231° |
| 2026-05-06 18:18 | 48.32234 | 17.02108 | 37718 ft | 414 kts | 231° |
| 2026-05-06 18:18 | 48.30461 | 16.98884 | 37749 ft | 414 kts | 231° |
| 2026-05-06 18:19 | 48.27075 | 16.91881 | 37766 ft | 416 kts | 241° |
| 2026-05-06 18:19 | 48.24909 | 16.83818 | 37780 ft | 418 kts | 250° |
| 2026-05-06 18:20 | 48.23051 | 16.75590 | 37779 ft | 420 kts | 249° |
| 2026-05-06 18:20 | 48.21152 | 16.67287 | 37774 ft | 421 kts | 249° |
| 2026-05-06 18:21 | 48.19230 | 16.58984 | 37776 ft | 422 kts | 249° |
| 2026-05-06 18:21 | 48.17292 | 16.50669 | 37774 ft | 423 kts | 249° |
| 2026-05-06 18:22 | 48.15349 | 16.42367 | 37804 ft | 423 kts | 249° |
| 2026-05-06 18:22 | 48.13409 | 16.34112 | 37769 ft | 422 kts | 249° |
| 2026-05-06 18:23 | 48.11458 | 16.25838 | 37749 ft | 421 kts | 249° |
| 2026-05-06 18:23 | 48.09508 | 16.17596 | 37745 ft | 420 kts | 249° |
| 2026-05-06 18:24 | 48.07556 | 16.09381 | 37739 ft | 419 kts | 249° |
| 2026-05-06 18:24 | 48.05603 | 16.01192 | 37740 ft | 418 kts | 249° |
| 2026-05-06 18:25 | 48.03690 | 15.93202 | 37738 ft | 417 kts | 249° |
| 2026-05-06 18:25 | 48.01734 | 15.85057 | 37749 ft | 416 kts | 248° |
| 2026-05-06 18:26 | 47.99779 | 15.76950 | 37740 ft | 415 kts | 248° |
| 2026-05-06 18:26 | 47.97820 | 15.68855 | 37748 ft | 414 kts | 248° |
| 2026-05-06 18:27 | 47.95875 | 15.60843 | 37758 ft | 413 kts | 248° |
| 2026-05-06 18:27 | 47.93914 | 15.52798 | 37759 ft | 413 kts | 248° |
| 2026-05-06 18:28 | 47.91969 | 15.44842 | 37389 ft | 401 kts | 248° |
| 2026-05-06 18:28 | 47.91021 | 15.40974 | 37114 ft | 394 kts | 248° |
| 2026-05-06 18:28 | 47.90078 | 15.37141 | 36866 ft | 393 kts | 248° |
| 2026-05-06 18:29 | 47.89153 | 15.33298 | 36619 ft | 394 kts | 249° |
| 2026-05-06 18:29 | 47.88292 | 15.29429 | 36366 ft | 392 kts | 250° |
| 2026-05-06 18:29 | 47.87466 | 15.25585 | 36095 ft | 387 kts | 250° |
| 2026-05-06 18:29 | 47.86656 | 15.21788 | 35836 ft | 383 kts | 250° |
| 2026-05-06 18:30 | 47.85851 | 15.18033 | 35576 ft | 379 kts | 250° |
| 2026-05-06 18:30 | 47.85050 | 15.14325 | 35310 ft | 375 kts | 250° |
| 2026-05-06 18:30 | 47.84262 | 15.10703 | 35059 ft | 370 kts | 250° |
| 2026-05-06 18:30 | 47.83470 | 15.07081 | 34824 ft | 366 kts | 250° |
| 2026-05-06 18:31 | 47.82695 | 15.03500 | 34572 ft | 361 kts | 250° |
| 2026-05-06 18:31 | 47.81940 | 14.99975 | 34339 ft | 358 kts | 249° |
| 2026-05-06 18:31 | 47.81184 | 14.96562 | 34098 ft | 356 kts | 249° |
| 2026-05-06 18:31 | 47.80406 | 14.93083 | 33864 ft | 354 kts | 249° |
| 2026-05-06 18:32 | 47.79632 | 14.89615 | 33645 ft | 352 kts | 248° |
| 2026-05-06 18:32 | 47.78861 | 14.86160 | 33369 ft | 352 kts | 248° |
| 2026-05-06 18:32 | 47.78093 | 14.82717 | 33107 ft | 351 kts | 248° |
| 2026-05-06 18:32 | 47.77324 | 14.79276 | 32832 ft | 350 kts | 248° |
| 2026-05-06 18:33 | 47.76556 | 14.75842 | 32532 ft | 349 kts | 248° |
| 2026-05-06 18:33 | 47.75795 | 14.72442 | 32306 ft | 345 kts | 248° |
| 2026-05-06 18:33 | 47.75041 | 14.69055 | 32026 ft | 346 kts | 248° |
| 2026-05-06 18:33 | 47.74357 | 14.66000 | 31801 ft | 346 kts | 248° |
| 2026-05-06 18:34 | 47.73596 | 14.62607 | 31544 ft | 347 kts | 248° |
| 2026-05-06 18:34 | 47.72842 | 14.59258 | 31299 ft | 347 kts | 248° |
| 2026-05-06 18:34 | 47.72075 | 14.55851 | 31030 ft | 348 kts | 248° |
| 2026-05-06 18:34 | 47.71305 | 14.52439 | 30785 ft | 349 kts | 248° |
| 2026-05-06 18:35 | 47.70533 | 14.49019 | 30545 ft | 350 kts | 249° |
| 2026-05-06 18:35 | 47.69760 | 14.45599 | 30305 ft | 349 kts | 248° |
| 2026-05-06 18:35 | 47.68986 | 14.42177 | 30056 ft | 349 kts | 248° |
| 2026-05-06 18:35 | 47.68218 | 14.38783 | 29825 ft | 345 kts | 248° |
| 2026-05-06 18:36 | 47.67458 | 14.35433 | 29535 ft | 340 kts | 248° |
| 2026-05-06 18:36 | 47.66709 | 14.32138 | 29259 ft | 334 kts | 248° |
| 2026-05-06 18:36 | 47.65969 | 14.28886 | 28969 ft | 331 kts | 248° |
| 2026-05-06 18:36 | 47.65235 | 14.25671 | 28699 ft | 328 kts | 248° |
| 2026-05-06 18:37 | 47.64510 | 14.22500 | 28428 ft | 329 kts | 248° |
| 2026-05-06 18:37 | 47.63759 | 14.19227 | 28165 ft | 333 kts | 248° |